Univ Park, Iowa
Current Conditions -  °F | °C
As of 10:35 AM on Tuesday 27 Jan 2015 (Local Time) from KOOA Reporting Station
Scattered Clouds Scattered Clouds  
Wind Chill: 29°   Ceiling: Unl
Heat Index: 36°   Visibility: 10mi
Dew Point: 32°   Wind: 9mph
Humidity: 84%   Direction: 60°ENE
Pressure: 30.18"   Gusts: NA
Location:  41.2873°N, 92.6193°W
Report Text: KOOA 271635Z AUTO 06008KT 10SM SCT015 SCT020 02/00 A3018 RMK AO2 T00241001
Loading
Personal Weather Stations






























Interactive Weather Map New forecast layout! Learn more

10-Day Weather Forecast

Advertisements
Track Severe Weather on mobile